createdAt,value
2018-05-14T00:02:42.621Z,99.90
2018-05-14T00:10:54.605Z,99.90
2018-05-14T00:13:44.355Z,99.90
2018-05-14T00:16:42.655Z,99.90
2018-05-14T00:22:11.985Z,99.90
2018-05-14T00:24:44.657Z,99.90
2018-05-14T00:27:43.156Z,99.90
2018-05-14T00:36:43.058Z,99.90
2018-05-14T00:44:55.859Z,99.90
2018-05-14T00:47:44.085Z,99.90
2018-05-14T00:50:12.286Z,99.90
2018-05-14T00:52:44.740Z,99.90
2018-05-14T00:55:43.368Z,99.90
2018-05-14T01:12:48.098Z,99.90
2018-05-14T01:15:42.548Z,99.90
2018-05-14T01:45:43.284Z,99.90
2018-05-14T02:55:42.990Z,99.90
2018-05-14T03:07:42.903Z,99.90
2018-05-14T03:13:43.026Z,99.90
2018-05-14T03:19:43.208Z,99.90
2018-05-14T03:34:43.255Z,99.90
2018-05-14T03:43:43.034Z,99.90
2018-05-14T03:49:43.081Z,99.90
2018-05-14T04:01:42.980Z,99.90
2018-05-14T04:13:42.920Z,99.90
2018-05-14T04:19:42.563Z,99.90
2018-05-14T04:31:43.148Z,99.90
2018-05-14T04:37:42.956Z,99.90
2018-05-14T04:49:42.748Z,99.90
2018-05-14T05:01:42.945Z,99.90
2018-05-14T05:16:42.726Z,99.90
2018-05-14T05:22:43.130Z,99.90
2018-05-14T05:37:43.193Z,99.90
2018-05-14T05:46:43.113Z,99.90
2018-05-14T05:52:42.897Z,99.90
2018-05-14T06:01:42.513Z,99.90
2018-05-14T06:13:43.070Z,99.90
2018-05-14T06:25:42.904Z,99.90
2018-05-14T06:37:43.282Z,99.90
2018-05-14T06:43:43.016Z,99.90
2018-05-14T06:49:42.798Z,99.90
2018-05-14T07:01:43.140Z,99.90
2018-05-14T07:13:43.130Z,99.90
2018-05-14T07:22:42.639Z,99.90
2018-05-14T07:25:34.980Z,99.90
2018-05-14T07:28:03.367Z,99.90
2018-05-14T07:30:31.538Z,99.90
2018-05-14T07:36:00.456Z,99.90
2018-05-14T07:38:43.825Z,99.90
2018-05-14T07:44:43.352Z,99.90
2018-05-14T07:50:42.944Z,99.90
2018-05-14T07:56:34.630Z,99.90
2018-05-14T08:11:06.410Z,99.90
2018-05-14T08:13:34.601Z,99.90
2018-05-14T08:19:03.277Z,99.90
2018-05-14T08:21:45.419Z,99.90
2018-05-14T08:24:43.508Z,99.90
2018-05-14T08:33:43.514Z,99.90
2018-05-14T08:39:33.903Z,99.90
2018-05-14T09:42:43.362Z,99.90
2018-05-14T10:00:43.057Z,99.90
2018-05-14T10:09:43.386Z,99.90
2018-05-14T10:15:42.873Z,99.90
2018-05-14T10:21:42.617Z,99.90
2018-05-14T10:30:43.334Z,99.90
2018-05-14T10:36:43.279Z,99.90
2018-05-14T10:45:42.871Z,98.00
2018-05-14T10:57:43.366Z,99.00
2018-05-14T11:06:43.114Z,97.40
2018-05-14T11:15:43.278Z,96.70
2018-05-14T11:24:42.982Z,98.20
2018-05-14T11:36:42.791Z,99.90
2018-05-14T11:48:43.143Z,98.80
2018-05-14T11:57:43.279Z,99.90
2018-05-14T12:06:43.157Z,97.80
2018-05-14T12:18:05.235Z,98.00
2018-05-14T12:20:44.375Z,98.40
2018-05-14T13:05:23.772Z,99.70
2018-05-14T13:10:52.629Z,97.30
2018-05-14T13:22:45.517Z,97.70
2018-05-14T13:53:43.094Z,98.30
2018-05-14T14:05:42.962Z,97.00
2018-05-14T14:14:42.825Z,96.60
2018-05-14T14:29:43.290Z,95.30
2018-05-14T14:32:11.563Z,96.00
2018-05-14T14:34:46.011Z,96.60
2018-05-14T14:37:43.607Z,97.30
2018-05-14T14:43:11.907Z,95.60
2018-05-14T14:45:46.410Z,96.10
2018-05-14T14:52:45.688Z,95.60
2018-05-14T14:55:13.866Z,95.00
2018-05-14T14:57:42.143Z,95.60
2018-05-14T15:00:10.333Z,98.20
2018-05-14T15:02:39.308Z,94.50
2018-05-14T15:05:07.578Z,94.50
2018-05-14T15:07:35.769Z,94.70
2018-05-14T15:10:04.043Z,95.50
2018-05-14T15:12:32.289Z,96.50
2018-05-14T15:15:00.461Z,95.50
2018-05-14T15:17:28.667Z,95.40
2018-05-14T15:19:56.905Z,97.40
2018-05-14T15:22:44.490Z,96.00
2018-05-14T15:25:13.479Z,95.40
2018-05-14T15:27:45.610Z,97.60
2018-05-14T15:30:13.902Z,97.60
2018-05-14T15:32:42.087Z,95.80
2018-05-14T15:35:11.034Z,95.90
2018-05-14T15:37:44.975Z,95.90
2018-05-14T15:40:13.242Z,98.50
2018-05-14T15:42:41.506Z,95.40
2018-05-14T15:45:09.678Z,96.20
2018-05-14T15:47:37.858Z,95.80
2018-05-14T15:53:06.537Z,97.60
2018-05-14T15:55:35.364Z,95.50
2018-05-14T15:58:03.553Z,96.10
2018-05-14T16:00:32.497Z,97.30
2018-05-14T16:03:00.818Z,97.20
2018-05-14T16:05:44.150Z,96.70
2018-05-14T16:08:13.153Z,96.90
2018-05-14T16:10:42.150Z,98.30
2018-05-14T16:13:11.099Z,98.30
2018-05-14T16:15:39.507Z,98.20
2018-05-14T16:18:09.792Z,96.40
2018-05-14T16:20:37.978Z,96.30
2018-05-14T16:26:07.002Z,95.30
2018-05-14T16:28:35.278Z,97.50
2018-05-14T16:31:03.508Z,94.90
2018-05-14T16:33:45.136Z,95.20
2018-05-14T16:36:20.495Z,95.00
2018-05-14T16:38:48.751Z,96.00
2018-05-14T16:41:16.966Z,95.80
2018-05-14T16:43:46.204Z,95.20
2018-05-14T16:46:14.396Z,95.20
2018-05-14T16:48:42.691Z,96.20
2018-05-14T16:54:11.947Z,96.40
2018-05-14T16:56:40.166Z,95.80
2018-05-14T16:59:09.163Z,97.60
2018-05-14T17:01:37.647Z,97.40
2018-05-14T17:04:05.858Z,97.00
2018-05-14T17:06:34.096Z,96.80
2018-05-14T17:09:02.584Z,97.00
2018-05-14T17:11:30.864Z,97.40
2018-05-14T17:13:59.837Z,98.10
2018-05-14T17:16:28.230Z,98.20
2018-05-14T17:18:56.707Z,96.30
2018-05-14T17:21:24.898Z,98.50
2018-05-14T17:23:53.970Z,97.10
2018-05-14T17:26:22.165Z,97.20
2018-05-14T17:28:51.143Z,98.00
2018-05-14T17:31:19.355Z,98.00
2018-05-14T17:33:48.593Z,98.40
2018-05-14T17:36:21.086Z,98.00
2018-05-14T17:38:49.362Z,98.40
2018-05-14T17:41:43.399Z,99.10
2018-05-14T17:44:11.620Z,98.30
2018-05-14T17:46:39.838Z,98.30
2018-05-14T17:49:08.079Z,98.40
2018-05-14T17:51:37.097Z,98.50
2018-05-14T17:54:06.865Z,98.20
2018-05-14T17:56:46.368Z,98.20
2018-05-14T17:59:14.592Z,98.50
2018-05-14T18:01:45.075Z,98.50
2018-05-14T18:04:13.401Z,98.50
2018-05-14T18:06:42.387Z,97.80
2018-05-14T18:09:10.583Z,97.70
2018-05-14T18:11:45.487Z,97.90
2018-05-14T18:14:13.689Z,98.30
2018-05-14T18:16:42.655Z,99.50
2018-05-14T18:19:12.497Z,98.50
2018-05-14T18:21:48.182Z,98.50
2018-05-14T18:24:18.014Z,99.90
2018-05-14T18:26:46.213Z,99.90
2018-05-14T18:29:20.934Z,99.90
2018-05-14T18:31:55.600Z,99.90
2018-05-14T18:34:29.420Z,99.90
2018-05-14T18:36:57.775Z,99.90
2018-05-14T18:39:26.694Z,99.90
2018-05-14T18:41:54.923Z,99.90
2018-05-14T18:44:29.603Z,99.90
2018-05-14T18:46:57.818Z,99.90
2018-05-14T18:49:26.963Z,99.90
2018-05-14T18:51:55.223Z,99.90
2018-05-14T18:54:24.167Z,99.90
2018-05-14T18:56:52.374Z,99.90
2018-05-14T18:59:20.718Z,99.90
2018-05-14T19:01:49.726Z,99.90
2018-05-14T19:04:18.716Z,99.90
2018-05-14T19:06:52.195Z,99.90
2018-05-14T19:09:43.754Z,99.70
2018-05-14T19:12:12.016Z,99.90
2018-05-14T19:14:41.058Z,99.90
2018-05-14T19:17:14.868Z,99.90
2018-05-14T19:19:46.616Z,99.90
2018-05-14T19:22:20.275Z,99.90
2018-05-14T19:24:49.255Z,99.90
2018-05-14T19:27:17.447Z,99.90
2018-05-14T19:29:46.435Z,99.90
2018-05-14T19:32:15.422Z,99.90
2018-05-14T19:34:50.539Z,99.90
2018-05-14T19:37:44.839Z,99.90
2018-05-14T19:40:19.517Z,99.90
2018-05-14T19:42:48.334Z,99.90
2018-05-14T19:45:16.538Z,99.90
2018-05-14T19:47:45.496Z,99.90
2018-05-14T19:50:13.889Z,99.90
2018-05-14T19:52:46.358Z,99.90
2018-05-14T19:55:14.551Z,99.90
2018-05-14T19:57:43.538Z,99.90
2018-05-14T20:00:12.618Z,99.90
2018-05-14T20:02:46.586Z,99.90
2018-05-14T20:08:43.315Z,99.90
2018-05-14T20:11:12.263Z,99.90
2018-05-14T20:13:47.114Z,99.90
2018-05-14T20:16:43.771Z,99.90
2018-05-14T20:19:12.778Z,99.90
2018-05-14T20:24:48.546Z,99.90
2018-05-14T20:27:16.738Z,99.90
2018-05-14T20:29:44.928Z,99.90
2018-05-14T20:32:43.719Z,99.90
2018-05-14T20:35:11.925Z,99.90
2018-05-14T20:37:40.111Z,99.90
2018-05-14T20:40:08.487Z,99.90
2018-05-14T20:42:38.221Z,99.90
2018-05-14T20:45:07.180Z,99.90
2018-05-14T20:47:35.398Z,99.90
2018-05-14T20:50:03.573Z,99.90
2018-05-14T20:52:31.764Z,99.90
2018-05-14T20:54:59.979Z,99.90
2018-05-14T20:57:44.560Z,99.90
2018-05-14T21:00:13.763Z,99.90
2018-05-14T21:02:46.105Z,99.90
2018-05-14T21:05:14.391Z,99.90
2018-05-14T21:07:42.978Z,99.90
2018-05-14T21:10:11.941Z,99.90
2018-05-14T21:12:46.126Z,99.90
2018-05-14T21:15:14.353Z,99.90
2018-05-14T21:17:42.775Z,99.90
2018-05-14T21:20:11.012Z,99.90
2018-05-14T21:22:39.963Z,99.90
2018-05-14T21:25:08.155Z,99.90
2018-05-14T21:27:46.067Z,99.90
2018-05-14T21:30:14.254Z,99.90
2018-05-14T21:32:43.234Z,99.90
2018-05-14T21:35:11.497Z,99.90
2018-05-14T21:37:39.758Z,99.90
2018-05-14T21:43:08.790Z,99.90
2018-05-14T21:45:38.474Z,99.90
2018-05-14T21:48:06.669Z,99.90
2018-05-14T21:50:36.385Z,99.90
2018-05-14T21:53:04.658Z,99.90
2018-05-14T21:55:45.530Z,99.90
2018-05-14T21:58:43.520Z,99.90
2018-05-14T22:01:12.592Z,99.90
2018-05-14T22:03:40.883Z,99.90
2018-05-14T22:06:14.795Z,99.90
2018-05-14T22:08:44.958Z,99.90
2018-05-14T22:11:13.174Z,99.90
2018-05-14T22:13:41.461Z,99.90
2018-05-14T22:16:10.419Z,99.90
2018-05-14T22:18:38.653Z,99.90
2018-05-14T22:21:06.893Z,99.90
2018-05-14T22:23:35.083Z,99.90
2018-05-14T22:26:04.026Z,99.90
2018-05-14T22:28:32.333Z,99.90
2018-05-14T22:31:00.527Z,99.90
2018-05-14T22:33:29.570Z,99.90
2018-05-14T22:35:58.514Z,99.90
2018-05-14T22:38:27.457Z,99.90
2018-05-14T22:43:57.322Z,99.90
2018-05-14T22:46:25.599Z,99.90
2018-05-14T22:48:54.549Z,99.90
2018-05-14T22:51:22.867Z,99.90
2018-05-14T22:53:51.042Z,99.90
2018-05-14T22:56:19.231Z,99.90
2018-05-14T22:58:48.382Z,99.90
2018-05-14T23:01:17.389Z,99.90
2018-05-14T23:03:45.574Z,99.90
2018-05-14T23:06:13.853Z,99.90
2018-05-14T23:08:45.386Z,99.90
2018-05-14T23:11:13.678Z,99.90
2018-05-14T23:13:42.023Z,99.90
2018-05-14T23:16:10.225Z,99.90
2018-05-14T23:18:45.166Z,99.90
2018-05-14T23:21:13.439Z,99.90
2018-05-14T23:23:42.336Z,99.90
2018-05-14T23:26:11.423Z,99.90
2018-05-14T23:28:39.592Z,99.90
2018-05-14T23:31:07.874Z,99.90
2018-05-14T23:33:36.095Z,99.90
2018-05-14T23:36:05.102Z,99.90
2018-05-14T23:38:33.290Z,99.90
2018-05-14T23:41:01.507Z,99.90
2018-05-14T23:43:30.461Z,99.90
2018-05-14T23:45:58.638Z,99.90
2018-05-14T23:48:26.829Z,99.90
2018-05-14T23:50:55.775Z,99.90
2018-05-14T23:53:23.978Z,99.90
2018-05-14T23:55:52.973Z,99.90
2018-05-14T23:58:21.961Z,99.90
